createdAt,value
2022-11-23T00:00:45.272Z,98598.34
2022-11-23T00:03:14.339Z,98592.19
2022-11-23T00:05:42.337Z,98591.44
2022-11-23T00:08:11.635Z,98590.66
2022-11-23T00:10:39.614Z,98588.66
2022-11-23T00:13:07.579Z,98582.53
2022-11-23T00:15:35.648Z,98588.16
2022-11-23T00:18:03.810Z,98590.47
2022-11-23T00:20:31.805Z,98586.56
2022-11-23T00:22:59.818Z,98591.34
2022-11-23T00:25:29.644Z,98589.72
2022-11-23T00:27:57.727Z,98584.75
2022-11-23T00:30:25.685Z,98588.06
2022-11-23T00:32:53.714Z,98582.06
2022-11-23T00:35:21.776Z,98570.88
2022-11-23T00:37:49.720Z,98560.19
2022-11-23T00:40:17.788Z,98559.13
2022-11-23T00:42:47.207Z,98539.88
2022-11-23T00:45:15.318Z,98534.69
2022-11-23T00:47:43.297Z,98524.16
2022-11-23T00:50:11.463Z,98521.91
2022-11-23T00:52:39.725Z,98519.44
2022-11-23T00:55:08.478Z,98523.16
2022-11-23T00:57:36.450Z,98529.78
2022-11-23T01:00:06.913Z,98538.00
2022-11-23T01:02:36.218Z,98521.41
2022-11-23T01:05:04.269Z,98527.22
2022-11-23T01:07:32.336Z,98513.59
2022-11-23T01:10:00.361Z,98516.13
2022-11-23T01:12:29.940Z,98509.09
2022-11-23T01:14:58.035Z,98510.72
2022-11-23T01:17:27.412Z,98505.19
2022-11-23T01:19:55.349Z,98508.66
2022-11-23T01:22:23.323Z,98504.47
2022-11-23T01:24:51.858Z,98514.81
2022-11-23T01:27:19.850Z,98515.59
2022-11-23T01:29:47.914Z,98512.28
2022-11-23T01:32:15.890Z,98522.84
2022-11-23T01:34:45.264Z,98514.28
2022-11-23T01:37:13.280Z,98510.94
2022-11-23T01:39:41.214Z,98495.53
2022-11-23T01:42:10.961Z,98498.00
2022-11-23T01:44:42.892Z,98483.09
2022-11-23T01:47:10.917Z,98467.75
2022-11-23T01:49:40.943Z,98478.16
2022-11-23T01:52:11.370Z,98465.56
2022-11-23T01:54:41.037Z,98465.44
2022-11-23T01:57:11.241Z,98455.09
2022-11-23T01:59:39.206Z,98452.69
2022-11-23T02:02:07.164Z,98446.47
2022-11-23T02:04:38.748Z,98451.66
2022-11-23T02:07:06.762Z,98435.69
2022-11-23T02:09:36.138Z,98438.16
2022-11-23T02:12:04.263Z,98429.91
2022-11-23T02:14:32.180Z,98417.78
2022-11-23T02:17:00.152Z,98423.03
2022-11-23T02:19:32.386Z,98421.06
2022-11-23T02:22:00.648Z,98424.06
2022-11-23T02:24:31.783Z,98423.53
2022-11-23T02:27:02.029Z,98437.59
2022-11-23T02:29:30.303Z,98431.41
2022-11-23T02:31:58.482Z,98433.19
2022-11-23T02:34:26.447Z,98442.25
2022-11-23T02:36:54.657Z,98434.56
2022-11-23T02:39:35.873Z,98439.13
2022-11-23T02:42:05.395Z,98444.44
2022-11-23T02:44:37.380Z,98450.28
2022-11-23T02:47:05.583Z,98443.25
2022-11-23T02:49:33.851Z,98437.84
2022-11-23T02:52:01.957Z,98437.09
2022-11-23T02:54:29.900Z,98437.69
2022-11-23T02:56:57.902Z,98437.84
2022-11-23T02:59:27.242Z,98443.69
2022-11-23T03:01:55.263Z,98438.16
2022-11-23T03:04:27.602Z,98434.22
2022-11-23T03:06:56.134Z,98428.84
2022-11-23T03:09:26.168Z,98411.03
2022-11-23T03:11:54.320Z,98427.66
2022-11-23T03:14:22.319Z,98424.50
2022-11-23T03:16:51.658Z,98419.13
2022-11-23T03:19:19.602Z,98424.69
2022-11-23T03:21:47.643Z,98424.44
2022-11-23T03:24:16.317Z,98430.00
2022-11-23T03:26:44.555Z,98433.72
2022-11-23T03:29:12.522Z,98431.84
2022-11-23T03:31:40.437Z,98434.56
2022-11-23T03:34:10.261Z,98418.38
2022-11-23T03:36:38.261Z,98415.84
2022-11-23T03:39:06.294Z,98418.53
2022-11-23T03:41:34.285Z,98415.63
2022-11-23T03:44:02.506Z,98414.97
2022-11-23T03:46:30.465Z,98412.09
2022-11-23T03:48:58.568Z,98408.22
2022-11-23T03:51:27.894Z,98416.53
2022-11-23T03:53:55.881Z,98400.19
2022-11-23T03:56:24.610Z,98390.72
2022-11-23T03:58:52.544Z,98397.13
2022-11-23T04:01:20.533Z,98398.63
2022-11-23T04:03:48.503Z,98394.06
2022-11-23T04:06:16.466Z,98389.34
2022-11-23T04:08:45.958Z,98389.06
2022-11-23T04:11:13.951Z,98389.06
2022-11-23T04:13:41.916Z,98384.84
2022-11-23T04:16:09.919Z,98391.47
2022-11-23T04:18:37.955Z,98382.94
2022-11-23T04:21:06.138Z,98396.41
2022-11-23T04:23:34.102Z,98386.38
2022-11-23T04:26:03.402Z,98390.03
2022-11-23T04:28:31.339Z,98385.94
2022-11-23T04:30:59.531Z,98383.38
2022-11-23T04:33:27.575Z,98371.69
2022-11-23T04:35:55.514Z,98377.03
2022-11-23T04:38:23.474Z,98369.16
2022-11-23T04:40:51.395Z,98369.59
2022-11-23T04:43:20.789Z,98365.44
2022-11-23T04:45:48.791Z,98362.84
2022-11-23T04:48:16.740Z,98370.63
2022-11-23T04:50:46.763Z,98377.69
2022-11-23T04:53:14.992Z,98369.59
2022-11-23T04:55:43.011Z,98370.19
2022-11-23T04:58:10.956Z,98363.44
2022-11-23T05:00:40.478Z,98359.31
2022-11-23T05:03:08.555Z,98354.75
2022-11-23T05:05:38.814Z,98342.91
2022-11-23T05:08:06.923Z,98342.16
2022-11-23T05:10:34.918Z,98345.06
2022-11-23T05:13:02.942Z,98340.94
2022-11-23T05:15:31.009Z,98337.47
2022-11-23T05:18:03.890Z,98338.91
2022-11-23T05:20:31.862Z,98323.22
2022-11-23T05:22:59.826Z,98330.72
2022-11-23T05:25:27.781Z,98319.66
2022-11-23T05:27:55.771Z,98346.88
2022-11-23T05:30:23.735Z,98343.63
2022-11-23T05:32:51.679Z,98347.97
2022-11-23T05:35:21.074Z,98347.63
2022-11-23T05:37:49.052Z,98364.28
2022-11-23T05:40:17.041Z,98361.47
2022-11-23T05:42:45.011Z,98362.19
2022-11-23T05:45:13.024Z,98360.84
2022-11-23T05:47:40.963Z,98364.28
2022-11-23T05:50:10.146Z,98369.66
2022-11-23T05:52:39.497Z,98375.06
2022-11-23T05:55:07.781Z,98374.50
2022-11-23T05:57:35.754Z,98371.91
2022-11-23T06:00:04.222Z,98371.59
2022-11-23T06:02:34.600Z,98368.09
2022-11-23T06:05:06.675Z,98366.28
2022-11-23T06:07:34.742Z,98372.88
2022-11-23T06:10:04.313Z,98363.75
2022-11-23T06:12:32.324Z,98345.78
2022-11-23T06:15:00.388Z,98363.06
2022-11-23T06:17:28.394Z,98364.91
2022-11-23T06:19:56.397Z,98366.34
2022-11-23T06:22:24.324Z,98369.97
2022-11-23T06:24:52.323Z,98366.06
2022-11-23T06:27:21.649Z,98363.63
2022-11-23T06:29:49.622Z,98373.50
2022-11-23T06:32:17.620Z,98373.72
2022-11-23T06:34:45.603Z,98383.47
2022-11-23T06:37:13.955Z,98391.94
2022-11-23T06:39:42.012Z,98399.56
2022-11-23T06:42:37.931Z,98394.50
2022-11-23T06:44:59.391Z,98380.63
2022-11-23T06:47:27.397Z,98366.75
2022-11-23T06:49:55.373Z,98380.84
2022-11-23T06:52:23.358Z,98370.03
2022-11-23T06:54:51.257Z,98373.31
2022-11-23T06:57:19.204Z,98379.44
2022-11-23T06:59:47.188Z,98370.38
2022-11-23T07:02:16.517Z,98383.19
2022-11-23T07:04:44.507Z,98393.31
2022-11-23T07:07:12.608Z,98394.63
2022-11-23T07:09:40.635Z,98382.25
2022-11-23T07:12:09.084Z,98382.03
2022-11-23T07:14:37.065Z,98401.16
2022-11-23T07:17:05.051Z,98406.13
2022-11-23T07:19:34.650Z,98413.53
2022-11-23T07:22:02.766Z,98415.63
2022-11-23T07:24:34.849Z,98417.31
2022-11-23T07:27:06.790Z,98419.16
2022-11-23T07:29:34.975Z,98426.31
2022-11-23T07:32:03.102Z,98418.88
2022-11-23T07:34:31.186Z,98426.75
2022-11-23T07:37:02.156Z,98435.13
2022-11-23T07:39:49.229Z,98448.75
2022-11-23T07:42:32.359Z,98454.53
2022-11-23T07:45:02.956Z,98453.19
2022-11-23T07:47:30.883Z,98449.34
2022-11-23T07:49:58.906Z,98427.50
2022-11-23T07:52:28.213Z,98432.78
2022-11-23T07:54:56.128Z,98434.78
2022-11-23T07:57:24.386Z,98428.34
2022-11-23T07:59:52.308Z,98433.06
2022-11-23T08:02:20.307Z,98438.31
2022-11-23T08:04:48.305Z,98444.47
2022-11-23T08:07:16.333Z,98443.50
2022-11-23T08:09:45.792Z,98436.13
2022-11-23T08:12:13.892Z,98431.66
2022-11-23T08:14:41.924Z,98435.78
2022-11-23T08:17:10.025Z,98441.84
2022-11-23T08:19:37.937Z,98446.84
2022-11-23T08:22:05.881Z,98447.25
2022-11-23T08:24:34.266Z,98459.56
2022-11-23T08:27:04.017Z,98461.09
2022-11-23T08:29:31.998Z,98451.88
2022-11-23T08:32:00.019Z,98446.63
2022-11-23T08:34:28.098Z,98448.78
2022-11-23T08:36:56.018Z,98448.13
2022-11-23T08:39:23.997Z,98452.09
2022-11-23T08:41:52.085Z,98444.31
2022-11-23T08:44:21.385Z,98441.75
2022-11-23T08:46:49.399Z,98445.81
2022-11-23T08:49:17.361Z,98440.88
2022-11-23T08:51:49.881Z,98450.91
2022-11-23T08:54:18.313Z,98458.38
2022-11-23T08:56:46.275Z,98451.94
2022-11-23T08:59:14.205Z,98432.47
2022-11-23T09:01:43.584Z,98425.88
2022-11-23T09:04:14.057Z,98419.09
2022-11-23T09:06:45.765Z,98424.84
2022-11-23T09:09:13.720Z,98421.78
2022-11-23T09:11:41.665Z,98439.34
2022-11-23T09:14:09.746Z,98438.00
2022-11-23T09:16:37.752Z,98449.56
2022-11-23T09:19:07.333Z,98442.06
2022-11-23T09:21:36.239Z,98429.06
2022-11-23T09:24:04.273Z,98437.72
2022-11-23T09:26:33.937Z,98437.41
2022-11-23T09:29:01.837Z,98443.38
2022-11-23T09:31:29.821Z,98435.25
2022-11-23T09:33:57.779Z,98440.53
2022-11-23T09:36:27.255Z,98438.00
2022-11-23T09:38:56.978Z,98434.22
2022-11-23T09:41:37.842Z,98421.91
2022-11-23T09:44:08.020Z,98426.91
2022-11-23T09:46:41.560Z,98422.75
2022-11-23T09:49:12.454Z,98428.88
2022-11-23T09:51:41.825Z,98417.66
2022-11-23T09:54:15.398Z,98407.00
2022-11-23T09:56:43.319Z,98411.47
2022-11-23T09:59:14.055Z,98411.75
2022-11-23T10:01:42.138Z,98411.34
2022-11-23T10:04:11.183Z,98405.88
2022-11-23T10:06:39.381Z,98426.84
2022-11-23T10:09:22.619Z,98424.44
2022-11-23T10:12:13.116Z,98423.16
2022-11-23T10:14:48.767Z,98421.75
2022-11-23T10:17:19.291Z,98419.16
2022-11-23T10:19:54.280Z,98416.56
2022-11-23T10:22:23.572Z,98415.91
2022-11-23T10:24:53.506Z,98406.13
2022-11-23T10:27:22.275Z,98402.66
2022-11-23T10:29:52.465Z,98414.78
2022-11-23T10:32:27.994Z,98397.53
2022-11-23T10:35:00.808Z,98412.31
2022-11-23T10:37:28.788Z,98411.53
2022-11-23T10:39:58.303Z,98409.78
2022-11-23T10:42:31.701Z,98407.75
2022-11-23T10:45:00.505Z,98417.44
2022-11-23T10:47:39.119Z,98418.41
2022-11-23T10:50:22.893Z,98417.16
2022-11-23T10:52:55.485Z,98410.03
2022-11-23T10:55:28.062Z,98412.50
2022-11-23T10:57:56.226Z,98415.94
2022-11-23T11:00:30.242Z,98408.19
2022-11-23T11:02:59.294Z,98407.00
2022-11-23T11:06:07.073Z,98410.41
2022-11-23T11:08:20.948Z,98413.59
2022-11-23T11:10:51.064Z,98395.53
2022-11-23T11:13:27.108Z,98404.47
2022-11-23T11:15:56.369Z,98402.28
2022-11-23T11:18:26.744Z,98415.53
2022-11-23T11:20:58.487Z,98416.53
2022-11-23T11:23:26.540Z,98412.63
2022-11-23T11:26:06.025Z,98418.53
2022-11-23T11:28:36.810Z,98427.22
2022-11-23T11:31:23.779Z,98425.28
2022-11-23T11:33:54.852Z,98392.16
2022-11-23T11:36:22.920Z,98423.56
2022-11-23T11:39:14.848Z,98422.09
2022-11-23T11:41:41.450Z,98416.34
2022-11-23T11:44:10.788Z,98421.88
2022-11-23T11:46:39.740Z,98426.31
2022-11-23T11:49:08.863Z,98428.13
2022-11-23T11:51:39.344Z,98438.63
2022-11-23T11:54:11.677Z,98429.47
2022-11-23T11:56:42.784Z,98429.16
2022-11-23T11:59:15.187Z,98441.38
2022-11-23T12:01:46.070Z,98447.94
2022-11-23T12:04:16.980Z,98435.66
2022-11-23T12:06:47.761Z,98454.00
2022-11-23T12:09:17.678Z,98453.91
2022-11-23T12:11:47.096Z,98459.13
2022-11-23T12:14:15.565Z,98458.91
2022-11-23T12:16:59.302Z,98449.63
2022-11-23T12:19:36.230Z,98445.84
2022-11-23T12:22:11.969Z,98452.34
2022-11-23T12:24:54.376Z,98449.13
2022-11-23T12:27:28.257Z,98452.66
2022-11-23T12:30:07.695Z,98454.44
2022-11-23T12:32:38.828Z,98450.69
2022-11-23T12:35:22.556Z,98445.16
2022-11-23T12:37:57.310Z,98440.34
2022-11-23T12:40:35.962Z,98443.28
2022-11-23T12:43:07.607Z,98449.38
2022-11-23T12:45:51.416Z,98450.22
2022-11-23T12:48:24.795Z,98441.63
2022-11-23T12:50:56.355Z,98442.81
2022-11-23T12:53:33.094Z,98447.16
2022-11-23T12:56:04.958Z,98440.34
2022-11-23T12:58:34.799Z,98441.56
2022-11-23T13:01:04.805Z,98418.63
2022-11-23T13:03:55.491Z,98431.69
2022-11-23T13:10:24.690Z,98436.88
2022-11-23T13:13:07.809Z,98445.97
2022-11-23T13:15:52.984Z,98438.31
2022-11-23T13:18:42.998Z,98437.31
2022-11-23T13:21:18.047Z,98445.88
2022-11-23T13:23:45.991Z,98450.22
2022-11-23T13:26:18.079Z,98456.47
2022-11-23T13:28:46.655Z,98452.56
2022-11-23T13:31:24.868Z,98457.50
2022-11-23T13:33:55.084Z,98464.56
2022-11-23T13:40:03.943Z,98466.53
2022-11-23T13:42:33.177Z,98471.63
2022-11-23T13:45:16.237Z,98474.09
2022-11-23T13:48:00.153Z,98477.97
2022-11-23T13:50:28.156Z,98478.78
2022-11-23T13:52:56.206Z,98476.97
2022-11-23T13:55:28.403Z,98472.88
2022-11-23T13:58:33.373Z,98479.06
2022-11-23T14:01:01.807Z,98483.91
2022-11-23T14:03:50.987Z,98482.00
2022-11-23T14:06:42.415Z,98484.38
2022-11-23T14:09:14.891Z,98480.53
2022-11-23T14:11:50.372Z,98471.09
2022-11-23T14:14:20.169Z,98473.50
2022-11-23T14:17:07.758Z,98477.13
2022-11-23T14:19:43.073Z,98476.97
2022-11-23T14:22:14.532Z,98478.31
2022-11-23T14:25:01.367Z,98469.00
2022-11-23T14:27:50.908Z,98472.78
2022-11-23T14:30:40.629Z,98491.94
2022-11-23T14:33:17.494Z,98475.94
2022-11-23T14:35:49.484Z,98468.34
2022-11-23T14:38:54.292Z,98469.47
2022-11-23T14:41:23.232Z,98462.13
2022-11-23T14:43:51.195Z,98484.13
2022-11-23T14:46:20.155Z,98487.09
2022-11-23T14:48:51.316Z,98477.66
2022-11-23T14:51:21.896Z,98479.38
2022-11-23T14:53:53.206Z,98484.22
2022-11-23T14:56:31.809Z,98488.78
2022-11-23T14:59:02.283Z,98491.94
2022-11-23T15:01:30.292Z,98493.66
2022-11-23T15:03:58.902Z,98501.13
2022-11-23T15:06:29.631Z,98489.63
2022-11-23T15:09:02.863Z,98511.53
2022-11-23T15:11:30.888Z,98514.66
2022-11-23T15:14:03.350Z,98518.00
2022-11-23T15:16:31.412Z,98515.31
2022-11-23T15:18:59.387Z,98523.59
2022-11-23T15:21:28.805Z,98524.84
2022-11-23T15:23:58.027Z,98514.50
2022-11-23T15:26:48.539Z,98513.47
2022-11-23T15:29:30.329Z,98513.72
2022-11-23T15:34:46.645Z,98515.00
2022-11-23T15:37:16.018Z,98503.03
2022-11-23T15:39:44.220Z,98513.00
2022-11-23T15:42:12.567Z,98512.38
2022-11-23T15:44:40.580Z,98513.88
2022-11-23T15:47:09.086Z,98502.28
2022-11-23T15:49:38.287Z,98498.59
2022-11-23T15:52:06.297Z,98511.06
2022-11-23T15:54:37.185Z,98510.84
2022-11-23T15:57:07.622Z,98516.88
2022-11-23T15:59:38.874Z,98518.13
2022-11-23T16:02:07.524Z,98506.94
2022-11-23T16:04:37.687Z,98506.56
2022-11-23T16:07:16.221Z,98523.13
2022-11-23T16:09:52.703Z,98527.69
2022-11-23T16:12:28.968Z,98523.72
2022-11-23T16:14:57.657Z,98533.47
2022-11-23T16:17:26.112Z,98532.84
2022-11-23T16:19:54.539Z,98539.72
2022-11-23T16:22:28.201Z,98557.47
2022-11-23T16:25:01.596Z,98555.84
2022-11-23T16:27:29.527Z,98560.59
2022-11-23T16:30:02.637Z,98564.31
2022-11-23T16:32:31.962Z,98554.59
2022-11-23T16:35:07.755Z,98558.34
2022-11-23T16:37:36.082Z,98557.28
2022-11-23T16:40:06.314Z,98569.88
2022-11-23T16:42:34.262Z,98577.16
2022-11-23T16:45:04.750Z,98571.16
2022-11-23T16:47:32.700Z,98558.75
2022-11-23T16:50:00.685Z,98562.25
2022-11-23T16:52:28.620Z,98567.00
2022-11-23T16:54:56.646Z,98570.06
2022-11-23T16:57:29.291Z,98572.75
2022-11-23T16:59:57.387Z,98573.16
2022-11-23T17:02:25.369Z,98574.84
2022-11-23T17:04:53.444Z,98573.56
2022-11-23T17:07:21.531Z,98575.03
2022-11-23T17:09:49.522Z,98579.59
2022-11-23T17:12:19.495Z,98574.41
2022-11-23T17:14:49.210Z,98579.34
2022-11-23T17:17:20.085Z,98578.97
2022-11-23T17:19:49.712Z,98585.56
2022-11-23T17:22:18.434Z,98586.38
2022-11-23T17:24:46.360Z,98593.41
2022-11-23T17:27:15.101Z,98600.00
2022-11-23T17:29:43.591Z,98606.22
2022-11-23T17:32:13.891Z,98617.97
2022-11-23T17:34:41.991Z,98623.97
2022-11-23T17:37:11.980Z,98623.53
2022-11-23T17:39:39.905Z,98623.34
2022-11-23T17:42:07.912Z,98634.50
2022-11-23T17:44:35.819Z,98646.50
2022-11-23T17:47:03.822Z,98645.09
2022-11-23T17:49:33.505Z,98643.63
2022-11-23T17:52:01.609Z,98643.44
2022-11-23T17:54:29.629Z,98645.91
2022-11-23T17:56:57.904Z,98651.75
2022-11-23T17:59:25.932Z,98650.91
2022-11-23T18:01:53.981Z,98630.66
2022-11-23T18:04:21.907Z,98657.31
2022-11-23T18:06:51.250Z,98660.41
2022-11-23T18:09:19.248Z,98649.88
2022-11-23T18:11:47.236Z,98646.78
2022-11-23T18:14:15.255Z,98646.78
2022-11-23T18:16:43.445Z,98640.94
2022-11-23T18:19:11.550Z,98655.00
2022-11-23T18:21:39.539Z,98659.94
2022-11-23T18:24:09.302Z,98651.25
2022-11-23T18:26:37.266Z,98652.09
2022-11-23T18:29:05.240Z,98654.97
2022-11-23T18:31:33.284Z,98667.53
2022-11-23T18:34:02.796Z,98663.81
2022-11-23T18:36:30.820Z,98671.06
2022-11-23T18:38:58.892Z,98668.97
2022-11-23T18:41:28.557Z,98669.59
2022-11-23T18:43:56.541Z,98678.91
2022-11-23T18:46:24.746Z,98675.19
2022-11-23T18:48:53.515Z,98688.22
2022-11-23T18:51:21.435Z,98675.63
2022-11-23T18:53:51.051Z,98675.22
2022-11-23T18:56:19.389Z,98672.34
2022-11-23T18:58:48.733Z,98680.16
2022-11-23T19:01:18.085Z,98679.34
2022-11-23T19:03:46.789Z,98677.72
2022-11-23T19:06:15.370Z,98673.56
2022-11-23T19:08:44.303Z,98672.09
2022-11-23T19:11:16.330Z,98669.63
2022-11-23T19:13:44.914Z,98672.31
2022-11-23T19:16:16.306Z,98666.09
2022-11-23T19:18:45.680Z,98669.03
2022-11-23T19:21:14.855Z,98668.19
2022-11-23T19:23:42.832Z,98668.59
2022-11-23T19:26:10.786Z,98670.03
2022-11-23T19:28:40.033Z,98668.97
2022-11-23T19:31:11.944Z,98674.78
2022-11-23T19:33:41.302Z,98668.97
2022-11-23T19:36:10.050Z,98665.91
2022-11-23T19:38:38.178Z,98674.34
2022-11-23T19:41:06.351Z,98676.63
2022-11-23T19:43:34.297Z,98686.31
2022-11-23T19:46:03.449Z,98686.75
2022-11-23T19:48:31.818Z,98688.78
2022-11-23T19:51:02.407Z,98696.97
2022-11-23T19:53:31.255Z,98702.94
2022-11-23T19:56:03.412Z,98706.47
2022-11-23T19:58:32.421Z,98703.53
2022-11-23T20:01:01.247Z,98694.66
2022-11-23T20:03:29.252Z,98702.91
2022-11-23T20:05:58.033Z,98705.56
2022-11-23T20:08:28.148Z,98713.50
2022-11-23T20:10:56.187Z,98707.28
2022-11-23T20:13:24.340Z,98706.47
2022-11-23T20:15:52.379Z,98711.28
2022-11-23T20:18:22.613Z,98716.06
2022-11-23T20:20:53.577Z,98718.78
2022-11-23T20:23:21.577Z,98726.84
2022-11-23T20:25:51.045Z,98718.19
2022-11-23T20:28:19.068Z,98724.81
2022-11-23T20:30:49.281Z,98724.41
2022-11-23T20:33:19.490Z,98726.69
2022-11-23T20:35:47.859Z,98731.81
2022-11-23T20:38:17.358Z,98722.94
2022-11-23T20:40:45.327Z,98726.88
2022-11-23T20:43:14.663Z,98738.00
2022-11-23T20:45:42.705Z,98736.78
2022-11-23T20:48:10.743Z,98734.31
2022-11-23T20:50:38.670Z,98733.91
2022-11-23T20:53:06.577Z,98735.22
2022-11-23T20:55:34.578Z,98732.69
2022-11-23T20:58:02.495Z,98720.72
2022-11-23T21:00:31.981Z,98731.06
2022-11-23T21:02:59.990Z,98731.06
2022-11-23T21:05:27.966Z,98729.84
2022-11-23T21:07:55.993Z,98741.81
2022-11-23T21:10:41.373Z,98745.53
2022-11-23T21:13:49.328Z,98743.47
2022-11-23T21:16:19.416Z,98746.41
2022-11-23T21:18:47.475Z,98740.59
2022-11-23T21:21:15.438Z,98747.63
2022-11-23T21:23:45.221Z,98745.56
2022-11-23T21:26:16.148Z,98753.00
2022-11-23T21:28:44.354Z,98754.25
2022-11-23T21:31:15.286Z,98758.81
2022-11-23T21:33:44.963Z,98751.16
2022-11-23T21:36:13.185Z,98742.88
2022-11-23T21:38:41.254Z,98745.38
2022-11-23T21:41:10.939Z,98735.84
2022-11-23T21:43:39.106Z,98740.44
2022-11-23T21:46:08.223Z,98732.38
2022-11-23T21:48:36.550Z,98739.41
2022-11-23T21:51:06.756Z,98740.03
2022-11-23T21:53:34.951Z,98734.41
2022-11-23T21:56:03.707Z,98732.16
2022-11-23T21:58:31.727Z,98733.19
2022-11-23T22:01:05.221Z,98734.25
2022-11-23T22:03:34.292Z,98734.00
2022-11-23T22:06:02.236Z,98737.31
2022-11-23T22:08:31.606Z,98744.34
2022-11-23T22:10:59.648Z,98744.16
2022-11-23T22:13:30.475Z,98744.75
2022-11-23T22:16:02.021Z,98741.88
2022-11-23T22:18:30.020Z,98749.75
2022-11-23T22:21:04.119Z,98753.88
2022-11-23T22:23:33.469Z,98752.19
2022-11-23T22:26:02.536Z,98761.94
2022-11-23T22:28:32.811Z,98759.88
2022-11-23T22:31:02.881Z,98758.84
2022-11-23T22:33:30.840Z,98758.41
2022-11-23T22:36:01.282Z,98756.16
2022-11-23T22:38:29.823Z,98758.41
2022-11-23T22:40:59.144Z,98755.91
2022-11-23T22:43:27.133Z,98750.97
2022-11-23T22:45:55.141Z,98748.47
2022-11-23T22:48:23.091Z,98746.81
2022-11-23T22:50:57.570Z,98746.84
2022-11-23T22:53:25.590Z,98741.06
2022-11-23T22:55:53.607Z,98751.38
2022-11-23T22:58:22.962Z,98754.69
2022-11-23T23:00:50.929Z,98750.53
2022-11-23T23:03:19.143Z,98753.03
2022-11-23T23:05:54.915Z,98756.34
2022-11-23T23:08:23.278Z,98764.22
2022-11-23T23:10:51.213Z,98755.91
2022-11-23T23:13:19.172Z,98757.97
2022-11-23T23:15:48.530Z,98767.50
2022-11-23T23:18:16.663Z,98761.69
2022-11-23T23:20:45.186Z,98770.81
2022-11-23T23:23:13.905Z,98772.25
2022-11-23T23:25:41.890Z,98770.38
2022-11-23T23:28:09.947Z,98771.19
2022-11-23T23:30:37.967Z,98775.53
2022-11-23T23:33:07.302Z,98773.25
2022-11-23T23:35:36.660Z,98767.88
2022-11-23T23:38:04.715Z,98777.38
2022-11-23T23:40:32.625Z,98764.56
2022-11-23T23:43:00.601Z,98761.41
2022-11-23T23:45:28.641Z,98766.53
2022-11-23T23:47:58.947Z,98768.63
2022-11-23T23:50:28.246Z,98761.59
2022-11-23T23:52:56.256Z,98762.00
2022-11-23T23:55:24.292Z,98761.59
2022-11-23T23:57:52.815Z,98760.97
